Time;durP1;ratioP1;P1;durP2;ratioP2;P2;SDS_P1;SDS_P2;PMS_P1;PMS_P2;Temp;Humidity;BMP_temperature;BMP_pressure;BME280_temperature;BME280_humidity;BME280_pressure;Samples;Min_cycle;Max_cycle;Signal;HPM_P1;HPM_P2
2022/06/04 00:01:22;;;;;;;16.00;12.50;;;17.00;99.90;;;;;;4589560;19;20346;-27
2022/06/04 00:02:54;;;;;;;14.55;11.30;;;17.00;99.90;;;;;;4589124;19;20500;-26
2022/06/04 00:04:25;;;;;;;16.20;11.38;;;17.00;99.90;;;;;;4588471;19;20108;-25
2022/06/04 00:05:57;;;;;;;13.55;10.65;;;17.00;99.90;;;;;;4588456;19;20469;-28
2022/06/04 00:07:27;;;;;;;;;;;17.00;99.90;;;;;;4588684;19;20018;-29
2022/06/04 00:08:58;;;;;;;12.90;10.65;;;17.00;99.90;;;;;;4589485;19;19911;-28
2022/06/04 00:16:09;;;;;;;12.38;10.40;;;17.00;99.90;;;;;;4590505;19;20018;-28
2022/06/04 00:17:40;;;;;;;11.93;10.73;;;17.00;99.90;;;;;;4589296;19;20125;-24
2022/06/04 00:19:12;;;;;;;13.73;10.45;;;17.00;99.90;;;;;;4589469;19;20035;-30
2022/06/04 00:20:43;;;;;;;12.32;10.80;;;17.00;99.90;;;;;;4588550;19;20023;-26
2022/06/04 00:22:14;;;;;;;12.93;11.57;;;17.00;99.90;;;;;;4588645;19;20018;-26
2022/06/04 00:23:45;;;;;;;14.50;11.50;;;16.90;99.90;;;;;;4587939;19;20015;-26
2022/06/04 00:25:16;;;;;;;13.90;10.70;;;16.90;99.90;;;;;;4587951;19;20035;-30
2022/06/04 00:26:47;;;;;;;12.95;10.70;;;16.90;99.90;;;;;;4587595;19;20011;-27
2022/06/04 00:28:19;;;;;;;10.77;9.68;;;16.90;99.90;;;;;;4588116;19;20384;-25
2022/06/04 00:29:50;;;;;;;14.30;10.75;;;16.90;99.90;;;;;;4590755;19;20010;-28
2022/06/04 00:31:21;;;;;;;14.95;11.65;;;16.90;99.90;;;;;;4590108;19;20017;-31
2022/06/04 00:32:53;;;;;;;12.82;10.82;;;16.90;99.90;;;;;;4589760;19;20010;-25
2022/06/04 00:34:24;;;;;;;13.95;11.55;;;16.90;99.90;;;;;;4589786;19;20010;-25
2022/06/04 00:35:56;;;;;;;14.07;11.32;;;16.90;99.90;;;;;;4589026;19;20367;-25
2022/06/04 00:37:27;;;;;;;15.07;12.60;;;16.90;99.90;;;;;;4588475;19;20084;-24
2022/06/04 00:38:59;;;;;;;13.90;12.32;;;16.90;99.90;;;;;;4586794;19;20014;-28
2022/06/04 00:40:43;;;;;;;13.68;12.15;;;16.90;99.90;;;;;;4587594;19;20111;-24
2022/06/04 00:42:16;;;;;;;13.50;11.68;;;16.90;99.90;;;;;;4587908;19;20011;-25
2022/06/04 00:43:58;;;;;;;13.75;11.68;;;16.90;99.90;;;;;;4587840;19;20011;-29
2022/06/04 00:45:32;;;;;;;14.20;12.13;;;16.90;99.90;;;;;;4586287;19;20018;-26
2022/06/04 00:47:11;;;;;;;14.38;11.48;;;16.90;99.90;;;;;;4586773;19;20003;-26
2022/06/04 00:48:42;;;;;;;17.95;12.57;;;16.90;99.90;;;;;;4587733;19;20042;-25
2022/06/04 00:50:15;;;;;;;18.17;12.60;;;16.90;99.90;;;;;;4590168;19;20084;-27
2022/06/04 00:51:48;;;;;;;20.25;13.23;;;16.90;99.90;;;;;;4588553;19;20011;-27
2022/06/04 00:53:19;;;;;;;17.05;12.82;;;16.90;99.90;;;;;;4588953;19;20418;-29
2022/06/04 00:54:52;;;;;;;15.18;13.07;;;16.90;99.90;;;;;;4593286;19;20006;-30
2022/06/04 00:56:23;;;;;;;16.60;12.82;;;16.90;99.90;;;;;;4592043;19;20504;-26
2022/06/04 00:58:31;;;;;;;19.88;13.68;;;16.90;99.90;;;;;;4593022;19;20006;-26
2022/06/04 01:00:06;;;;;;;14.57;11.40;;;16.90;99.90;;;;;;4590662;19;20111;-25
2022/06/04 01:02:11;;;;;;;13.63;12.02;;;16.90;99.90;;;;;;4591476;19;20010;-25
2022/06/04 01:03:47;;;;;;;13.48;10.82;;;16.90;99.90;;;;;;4592352;19;20038;-29
2022/06/04 01:05:32;;;;;;;12.23;10.38;;;16.90;99.90;;;;;;4591800;19;20019;-26
2022/06/04 01:07:25;;;;;;;12.75;11.00;;;16.80;99.90;;;;;;4590486;19;20024;-29
2022/06/04 01:09:11;;;;;;;13.25;11.00;;;16.80;99.90;;;;;;4592215;19;20101;-26
2022/06/04 01:10:55;;;;;;;13.57;10.55;;;16.90;99.90;;;;;;4591325;19;20011;-29
2022/06/04 01:12:54;;;;;;;14.82;10.85;;;16.90;99.90;;;;;;4591233;19;20434;-26
2022/06/04 01:14:31;;;;;;;13.80;11.20;;;16.80;99.90;;;;;;4591642;19;20357;-25
2022/06/04 01:16:24;;;;;;;14.18;10.48;;;16.80;99.90;;;;;;4592018;19;20017;-27
2022/06/04 01:17:55;;;;;;;;;;;16.80;99.90;;;;;;4592968;19;20137;-25
2022/06/04 01:19:52;;;;;;;15.40;11.13;;;16.80;99.90;;;;;;4591527;19;19911;-29
2022/06/04 01:21:37;;;;;;;14.20;11.05;;;16.80;99.90;;;;;;4592134;19;20039;-26
2022/06/04 01:23:15;;;;;;;12.27;10.07;;;16.80;99.90;;;;;;4589515;19;20014;-30
2022/06/04 01:25:04;;;;;;;13.45;10.52;;;16.80;99.90;;;;;;4591621;19;20058;-26
2022/06/04 01:27:03;;;;;;;13.20;10.82;;;16.80;99.90;;;;;;4589445;19;20006;-25
2022/06/04 01:28:36;;;;;;;12.30;10.68;;;16.80;99.90;;;;;;4589389;19;20501;-28
2022/06/04 01:30:18;;;;;;;13.38;10.85;;;16.80;99.90;;;;;;4589046;19;20014;-25
2022/06/04 01:31:52;;;;;;;18.90;11.77;;;16.80;99.90;;;;;;4589262;19;20010;-26
2022/06/04 01:33:33;;;;;;;15.85;11.18;;;16.80;99.90;;;;;;4589163;19;20010;-27
2022/06/04 01:35:19;;;;;;;12.95;10.38;;;16.80;99.90;;;;;;4589761;19;20018;-29
2022/06/04 01:37:01;;;;;;;13.95;11.80;;;16.80;99.90;;;;;;4589369;19;20003;-25
2022/06/04 01:38:36;;;;;;;14.40;12.43;;;16.80;99.90;;;;;;4590132;19;20015;-26
2022/06/04 01:41:59;;;;;;;;;;;16.80;99.90;;;;;;4591056;19;20082;-25
2022/06/04 01:43:42;;;;;;;19.25;14.65;;;16.80;99.90;;;;;;4592445;19;19914;-27
2022/06/04 01:45:15;;;;;;;17.67;14.27;;;16.80;99.90;;;;;;4592836;19;20019;-27
2022/06/04 01:46:51;;;;;;;24.33;18.15;;;16.80;99.90;;;;;;4592029;19;20011;-27
2022/06/04 01:48:22;;;;;;;24.83;18.75;;;16.80;99.90;;;;;;4592083;19;20018;-26
2022/06/04 01:49:54;;;;;;;32.83;22.13;;;16.80;99.90;;;;;;4591915;19;20333;-26
2022/06/04 01:51:26;;;;;;;29.95;21.98;;;16.80;99.90;;;;;;4591376;19;20029;-25
2022/06/04 01:52:58;;;;;;;33.55;23.80;;;16.80;99.90;;;;;;4590934;19;20015;-25
2022/06/04 01:54:32;;;;;;;24.25;19.13;;;16.80;99.90;;;;;;4590585;19;20027;-28
2022/06/04 01:56:10;;;;;;;20.67;16.58;;;16.80;99.90;;;;;;4590488;19;20015;-29
2022/06/04 01:57:46;;;;;;;18.05;15.07;;;16.80;99.90;;;;;;4590442;19;20010;-27
2022/06/04 01:59:44;;;;;;;20.48;14.93;;;16.80;99.90;;;;;;4590305;19;20031;-24
2022/06/04 02:01:18;;;;;;;18.80;14.13;;;16.80;99.90;;;;;;4589410;19;20019;-28
2022/06/04 02:02:56;;;;;;;20.05;14.32;;;16.70;99.90;;;;;;4588831;19;20434;-30
2022/06/04 02:04:29;;;;;;;16.55;13.45;;;16.80;99.90;;;;;;4588618;19;20014;-24
2022/06/04 02:06:04;;;;;;;18.10;13.93;;;16.80;99.90;;;;;;4588329;19;20489;-30
2022/06/04 02:07:37;;;;;;;18.48;14.23;;;16.80;99.90;;;;;;4589146;19;20022;-26
2022/06/04 02:09:11;;;;;;;15.88;14.18;;;16.80;99.90;;;;;;4590086;19;20021;-26
2022/06/04 02:10:47;;;;;;;16.85;12.07;;;16.80;99.90;;;;;;4590055;19;20010;-28
2022/06/04 02:12:19;;;;;;;13.85;12.13;;;16.80;99.90;;;;;;4589985;19;20014;-24
2022/06/04 02:13:52;;;;;;;13.52;12.13;;;16.70;99.90;;;;;;4589974;19;20011;-26
2022/06/04 02:15:27;;;;;;;13.88;12.30;;;16.80;99.90;;;;;;4589901;19;20007;-26
2022/06/04 02:17:02;;;;;;;13.98;12.52;;;16.80;99.90;;;;;;4590227;19;20013;-26
2022/06/04 02:18:34;;;;;;;17.02;11.65;;;16.80;99.90;;;;;;4590691;19;20002;-24
2022/06/04 02:20:06;;;;;;;15.15;11.55;;;16.70;99.90;;;;;;4589888;19;20015;-27
2022/06/04 02:21:37;;;;;;;13.60;12.20;;;16.70;99.90;;;;;;4587811;19;20021;-26
2022/06/04 02:23:09;;;;;;;13.70;12.20;;;16.70;99.90;;;;;;4589414;19;20023;-26
2022/06/04 02:24:40;;;;;;;13.88;12.15;;;16.80;99.90;;;;;;4589802;19;20010;-26
2022/06/04 02:26:12;;;;;;;;;;;16.80;99.90;;;;;;4590516;19;20078;-25
2022/06/04 02:27:43;;;;;;;17.42;14.15;;;16.80;99.90;;;;;;4588326;19;20410;-27
2022/06/04 02:29:14;;;;;;;17.13;14.10;;;16.80;99.90;;;;;;4589256;19;20432;-27
2022/06/04 02:30:51;;;;;;;20.05;14.15;;;16.80;99.90;;;;;;4589712;19;20037;-26
2022/06/04 02:32:33;;;;;;;20.15;14.00;;;16.80;99.90;;;;;;4589045;19;20112;-26
2022/06/04 02:34:16;;;;;;;19.38;15.15;;;16.80;99.90;;;;;;4589332;19;20090;-23
2022/06/04 02:36:15;;;;;;;20.25;14.68;;;16.80;99.90;;;;;;4590761;19;20090;-27
2022/06/04 02:38:21;;;;;;;18.63;14.02;;;16.80;99.90;;;;;;4589637;19;20014;-25
2022/06/04 02:40:27;;;;;;;20.02;13.90;;;16.80;99.90;;;;;;4591057;19;20025;-25
2022/06/04 02:42:17;;;;;;;15.65;13.88;;;16.80;99.90;;;;;;4589482;19;20524;-25
2022/06/04 02:43:57;;;;;;;18.38;13.57;;;16.80;99.90;;;;;;4588825;19;20027;-30
2022/06/04 02:45:31;;;;;;;17.35;12.82;;;16.80;99.90;;;;;;4589222;19;20481;-26
2022/06/04 02:47:05;;;;;;;17.30;13.63;;;16.80;99.90;;;;;;4588514;19;20017;-26
2022/06/04 02:48:41;;;;;;;16.38;13.15;;;16.80;99.90;;;;;;4588942;19;20010;-25
2022/06/04 02:50:25;;;;;;;25.35;15.25;;;16.80;99.90;;;;;;4589255;19;20018;-26
2022/06/04 02:51:56;;;;;;;19.67;14.68;;;16.80;99.90;;;;;;4589346;19;19994;-26
2022/06/04 02:53:29;;;;;;;20.38;15.88;;;16.70;99.90;;;;;;4588792;19;20018;-27
2022/06/04 02:55:07;;;;;;;21.23;16.15;;;16.80;99.90;;;;;;4589109;19;20014;-25
2022/06/04 02:56:38;;;;;;;17.58;13.80;;;16.80;99.90;;;;;;4589113;19;20028;-28
2022/06/04 02:58:11;;;;;;;19.02;14.45;;;16.80;99.90;;;;;;4589245;19;20476;-30
2022/06/04 02:59:43;;;;;;;18.90;13.27;;;16.70;99.90;;;;;;4588603;19;20011;-28
2022/06/04 03:01:14;;;;;;;19.73;13.93;;;16.80;99.90;;;;;;4588613;19;20015;-29
2022/06/04 03:02:46;;;;;;;;;;;16.80;99.90;;;;;;4590434;19;20011;-27
2022/06/04 03:04:17;;;;;;;18.15;13.23;;;16.80;99.90;;;;;;4589440;19;19925;-25
2022/06/04 03:05:55;;;;;;;17.38;13.02;;;16.70;99.90;;;;;;4588615;19;20014;-26
2022/06/04 03:07:27;;;;;;;18.30;13.07;;;16.80;99.90;;;;;;4587501;19;20022;-26
2022/06/04 03:09:03;;;;;;;20.27;13.57;;;16.80;99.90;;;;;;4589022;19;20011;-28
2022/06/04 03:10:35;;;;;;;16.65;13.48;;;16.80;99.90;;;;;;4588692;19;20015;-27
2022/06/04 03:12:07;;;;;;;18.50;14.07;;;16.70;99.90;;;;;;4588313;19;20397;-30
2022/06/04 03:13:38;;;;;;;;;;;16.80;99.90;;;;;;4589727;19;20007;-26
2022/06/04 03:15:11;;;;;;;17.43;12.73;;;16.80;99.90;;;;;;4588888;19;19982;-26
2022/06/04 03:16:44;;;;;;;18.52;14.07;;;16.80;99.90;;;;;;4587509;19;20468;-27
2022/06/04 03:18:15;;;;;;;20.13;14.23;;;16.70;99.90;;;;;;4589543;19;20014;-27
2022/06/04 03:19:46;;;;;;;19.42;13.77;;;16.80;99.90;;;;;;4593378;19;20007;-27
2022/06/04 03:21:18;;;;;;;18.80;13.95;;;16.80;99.90;;;;;;4590118;19;20494;-25
2022/06/04 03:22:49;;;;;;;;;;;16.80;99.90;;;;;;4592267;19;20030;-31
2022/06/04 03:24:20;;;;;;;18.47;13.97;;;16.80;99.90;;;;;;4590598;19;19915;-27
2022/06/04 03:25:51;;;;;;;17.65;14.57;;;16.80;99.90;;;;;;4590728;19;21028;-26
2022/06/04 03:27:23;;;;;;;17.90;14.05;;;16.80;99.90;;;;;;4590720;19;20453;-25
2022/06/04 03:28:54;;;;;;;16.08;13.23;;;16.80;99.90;;;;;;4589422;19;20014;-25
2022/06/04 03:30:27;;;;;;;15.25;13.63;;;16.80;99.90;;;;;;4589765;19;20496;-29
2022/06/04 03:31:58;;;;;;;17.10;13.55;;;16.80;99.90;;;;;;4590333;19;20422;-27
2022/06/04 03:33:30;;;;;;;15.25;13.63;;;16.80;99.90;;;;;;4590919;19;20395;-26
2022/06/04 03:35:01;;;;;;;16.77;13.35;;;16.80;99.90;;;;;;4589513;19;20035;-24
2022/06/04 03:36:33;;;;;;;16.23;14.32;;;16.80;99.90;;;;;;4589584;19;20014;-25
2022/06/04 03:38:04;;;;;;;16.77;14.55;;;16.80;99.90;;;;;;4589480;19;20081;-28
2022/06/04 03:39:36;;;;;;;16.83;13.77;;;16.80;99.90;;;;;;4591661;19;20018;-25
2022/06/04 03:41:07;;;;;;;17.08;14.63;;;16.80;99.90;;;;;;4589322;19;20019;-27
2022/06/04 03:42:38;;;;;;;16.92;14.10;;;16.80;99.90;;;;;;4589411;19;20039;-26
2022/06/04 03:44:09;;;;;;;16.02;14.02;;;16.80;99.90;;;;;;4588706;19;20105;-27
2022/06/04 03:45:40;;;;;;;19.15;13.80;;;16.80;99.90;;;;;;4592632;19;20010;-25
2022/06/04 03:47:11;;;;;;;14.02;12.52;;;16.80;99.90;;;;;;4587311;19;20017;-24
2022/06/04 03:48:43;;;;;;;19.60;15.55;;;16.80;99.90;;;;;;4589992;19;20342;-24
2022/06/04 03:50:15;;;;;;;;;;;16.90;99.90;;;;;;4590802;19;20416;-25
2022/06/04 03:51:47;;;;;;;15.93;13.60;;;16.90;99.90;;;;;;4589824;19;19919;-24
2022/06/04 03:53:18;;;;;;;16.67;13.68;;;16.90;99.90;;;;;;4588923;19;20010;-27
2022/06/04 03:54:52;;;;;;;17.00;13.60;;;16.90;99.90;;;;;;4590482;19;20044;-25
2022/06/04 03:56:23;;;;;;;18.35;15.05;;;16.90;99.90;;;;;;4587999;19;20020;-26
2022/06/04 03:57:55;;;;;;;;;;;16.90;99.90;;;;;;4589193;19;20018;-26
2022/06/04 03:59:26;;;;;;;16.70;14.32;;;16.90;99.90;;;;;;4591388;19;19922;-25
2022/06/04 04:00:57;;;;;;;;;;;16.90;99.90;;;;;;4590125;19;20006;-27
2022/06/04 04:02:29;;;;;;;16.77;13.23;;;16.90;99.90;;;;;;4591029;19;19962;-26
2022/06/04 04:04:00;;;;;;;16.58;14.40;;;16.90;99.90;;;;;;4589788;19;20449;-26
2022/06/04 04:05:36;;;;;;;16.15;13.40;;;16.90;99.90;;;;;;4588494;19;20006;-27
2022/06/04 04:07:07;;;;;;;19.17;14.70;;;16.90;99.90;;;;;;4589475;19;20014;-25
2022/06/04 04:08:38;;;;;;;16.08;12.98;;;16.90;99.90;;;;;;4589510;19;20014;-27
2022/06/04 04:10:10;;;;;;;15.93;13.45;;;16.90;99.90;;;;;;4589604;19;20367;-29
2022/06/04 04:11:41;;;;;;;16.25;13.90;;;16.90;99.90;;;;;;4591690;19;20014;-27
2022/06/04 04:13:13;;;;;;;15.15;13.32;;;17.00;99.90;;;;;;4589926;19;20003;-24
2022/06/04 04:14:44;;;;;;;15.48;13.63;;;17.00;99.90;;;;;;4589433;19;20028;-26
2022/06/04 04:16:15;;;;;;;14.65;13.15;;;17.00;99.90;;;;;;4589740;19;20014;-25
2022/06/04 04:17:47;;;;;;;17.35;13.65;;;17.00;99.90;;;;;;4588602;19;20045;-26
2022/06/04 04:19:18;;;;;;;14.38;12.88;;;17.00;99.90;;;;;;4591197;19;20512;-28
2022/06/04 04:20:49;;;;;;;15.10;12.45;;;17.00;99.90;;;;;;4590085;19;20022;-23
2022/06/04 04:22:20;;;;;;;14.57;12.32;;;17.00;99.90;;;;;;4590901;19;20440;-24
2022/06/04 04:23:52;;;;;;;13.98;12.48;;;17.00;99.90;;;;;;4592199;19;20378;-24
2022/06/04 04:25:24;;;;;;;14.00;12.00;;;17.00;99.90;;;;;;4592739;19;20007;-24
2022/06/04 04:26:56;;;;;;;13.60;12.00;;;17.00;99.90;;;;;;4590503;19;20022;-26
2022/06/04 04:28:27;;;;;;;14.05;11.75;;;17.00;99.90;;;;;;4593244;19;20006;-23
2022/06/04 04:29:58;;;;;;;13.68;12.27;;;17.10;99.90;;;;;;4594812;19;20018;-26
2022/06/04 04:31:29;;;;;;;13.32;11.93;;;17.20;99.90;;;;;;4596598;19;20342;-27
2022/06/04 04:33:00;;;;;;;16.33;13.45;;;17.20;99.90;;;;;;4596585;19;20007;-25
2022/06/04 04:34:31;;;;;;;14.95;11.77;;;17.30;99.90;;;;;;4594873;19;20037;-28
2022/06/04 04:36:03;;;;;;;14.40;12.85;;;17.30;99.90;;;;;;4594623;19;20010;-26
2022/06/04 04:37:34;;;;;;;14.73;12.35;;;17.30;99.90;;;;;;4594246;19;20062;-32
2022/06/04 04:39:05;;;;;;;13.15;11.85;;;17.40;99.90;;;;;;4592922;19;20014;-29
2022/06/04 04:40:36;;;;;;;13.85;12.48;;;17.40;99.90;;;;;;4593067;19;20011;-26
2022/06/04 04:42:07;;;;;;;15.73;13.43;;;17.40;99.90;;;;;;4593465;19;20006;-26
2022/06/04 04:43:38;;;;;;;15.18;13.00;;;17.40;99.90;;;;;;4594046;19;20023;-26
2022/06/04 04:45:10;;;;;;;14.43;12.93;;;17.40;99.90;;;;;;4593999;19;20006;-29
2022/06/04 04:46:41;;;;;;;;;;;17.40;99.90;;;;;;4594558;19;20015;-26
2022/06/04 04:48:15;;;;;;;14.20;12.43;;;17.40;99.90;;;;;;4591612;19;19918;-29
2022/06/04 04:49:46;;;;;;;14.00;12.60;;;17.40;99.90;;;;;;4592700;19;20010;-28
2022/06/04 04:51:19;;;;;;;14.23;12.73;;;17.40;99.90;;;;;;4592369;19;20014;-27
2022/06/04 04:52:51;;;;;;;14.70;12.77;;;17.40;99.90;;;;;;4592687;19;20014;-30
2022/06/04 04:54:22;;;;;;;14.18;12.65;;;17.40;99.90;;;;;;4593423;19;20014;-25
2022/06/04 04:55:53;;;;;;;14.07;12.68;;;17.40;99.90;;;;;;4593656;19;20017;-26
2022/06/04 04:57:24;;;;;;;12.75;11.55;;;17.40;99.90;;;;;;4593955;19;20022;-26
2022/06/04 04:58:56;;;;;;;12.52;11.27;;;17.40;99.90;;;;;;4594660;19;20031;-28
2022/06/04 05:00:27;;;;;;;12.10;10.82;;;17.40;99.90;;;;;;4592814;19;20026;-27
2022/06/04 05:01:58;;;;;;;12.80;11.50;;;17.40;99.90;;;;;;4594080;19;20031;-24
2022/06/04 05:03:29;;;;;;;12.77;11.20;;;17.40;99.90;;;;;;4593925;19;20011;-28
2022/06/04 05:05:00;;;;;;;12.45;11.25;;;17.40;99.90;;;;;;4593744;19;20428;-27
2022/06/04 05:06:31;;;;;;;12.57;11.27;;;17.40;99.90;;;;;;4592950;19;20011;-25
2022/06/04 05:08:03;;;;;;;11.80;10.55;;;17.40;99.90;;;;;;4592013;19;20488;-28
2022/06/04 05:09:36;;;;;;;12.15;10.95;;;17.40;99.90;;;;;;4592647;19;20017;-28
2022/06/04 05:11:35;;;;;;;12.77;11.52;;;17.50;99.90;;;;;;4592389;19;20082;-25
2022/06/04 05:13:06;;;;;;;14.35;9.95;;;17.40;99.90;;;;;;4592870;19;20022;-31
2022/06/04 05:14:38;;;;;;;11.48;10.27;;;17.50;99.90;;;;;;4593773;19;20018;-25
2022/06/04 05:16:09;;;;;;;11.70;10.30;;;17.50;99.90;;;;;;4592975;19;20024;-25
2022/06/04 05:17:41;;;;;;;12.30;11.07;;;17.40;99.90;;;;;;4593575;19;20011;-26
2022/06/04 05:19:13;;;;;;;13.90;11.00;;;17.50;99.90;;;;;;4593470;19;20074;-26
2022/06/04 05:20:44;;;;;;;12.38;11.20;;;17.50;99.90;;;;;;4592468;19;20517;-26
2022/06/04 05:22:15;;;;;;;11.48;10.38;;;17.50;99.90;;;;;;4592928;19;20010;-26
2022/06/04 05:23:47;;;;;;;10.88;9.77;;;17.50;99.90;;;;;;4594014;19;20011;-32
2022/06/04 05:25:18;;;;;;;11.82;10.63;;;17.50;99.90;;;;;;4592089;19;20362;-25
2022/06/04 05:26:52;;;;;;;10.70;9.70;;;17.50;99.90;;;;;;4592672;19;20068;-25
2022/06/04 05:28:23;;;;;;;10.77;9.75;;;17.50;99.90;;;;;;4594001;19;20002;-25
2022/06/04 05:29:55;;;;;;;12.10;10.90;;;17.60;99.90;;;;;;4593453;19;20006;-26
2022/06/04 05:31:26;;;;;;;11.18;10.05;;;17.50;99.90;;;;;;4593371;19;20006;-26
2022/06/04 05:32:57;;;;;;;10.05;8.80;;;17.60;99.90;;;;;;4593558;19;20077;-30
2022/06/04 05:34:28;;;;;;;10.57;9.55;;;17.60;99.90;;;;;;4593390;19;20084;-27
2022/06/04 05:35:59;;;;;;;12.75;9.93;;;17.60;99.90;;;;;;4592994;19;20006;-27
2022/06/04 05:37:30;;;;;;;10.73;9.63;;;17.60;99.90;;;;;;4593286;19;20014;-25
2022/06/04 05:39:02;;;;;;;11.40;10.30;;;17.60;99.90;;;;;;4592023;19;20014;-29
2022/06/04 05:40:33;;;;;;;11.73;10.63;;;17.60;99.90;;;;;;4595269;19;20101;-30
2022/06/04 05:42:05;;;;;;;11.52;10.38;;;17.60;99.90;;;;;;4595043;19;20010;-24
2022/06/04 05:43:39;;;;;;;11.68;10.50;;;17.60;99.90;;;;;;4593253;19;20070;-27
2022/06/04 05:45:10;;;;;;;11.30;10.13;;;17.60;99.90;;;;;;4592037;19;20070;-27
2022/06/04 05:46:42;;;;;;;12.18;10.30;;;17.60;99.90;;;;;;4592598;19;20007;-28
2022/06/04 05:48:13;;;;;;;10.18;9.18;;;17.70;99.90;;;;;;4592590;19;20341;-25
2022/06/04 05:49:44;;;;;;;11.10;9.85;;;17.70;99.90;;;;;;4592938;19;20011;-27
2022/06/04 05:51:21;;;;;;;10.60;9.50;;;17.70;99.90;;;;;;4593100;19;19998;-26
2022/06/04 05:52:52;;;;;;;12.35;9.43;;;17.70;99.90;;;;;;4590862;19;20074;-25
2022/06/04 05:54:23;;;;;;;9.20;8.25;;;17.70;99.90;;;;;;4591348;19;20484;-26
2022/06/04 05:55:54;;;;;;;12.27;10.05;;;17.70;99.90;;;;;;4591272;19;20022;-31
2022/06/04 05:57:25;;;;;;;10.30;9.10;;;17.80;99.90;;;;;;4593725;19;20015;-26
2022/06/04 05:58:58;;;;;;;10.10;9.00;;;17.80;99.90;;;;;;4593211;19;20014;-24
2022/06/04 06:00:29;;;;;;;9.88;8.93;;;17.80;99.90;;;;;;4590963;19;20026;-26
2022/06/04 06:02:01;;;;;;;10.45;9.45;;;17.80;99.90;;;;;;4591673;19;20333;-28
2022/06/04 06:03:33;;;;;;;10.40;8.77;;;17.80;99.90;;;;;;4591231;19;20051;-26
2022/06/04 06:05:04;;;;;;;9.40;8.48;;;17.80;99.90;;;;;;4590783;19;20086;-24
2022/06/04 06:06:38;;;;;;;10.68;9.60;;;17.90;99.90;;;;;;4590153;19;20519;-25
2022/06/04 06:08:09;;;;;;;10.32;9.20;;;17.90;99.90;;;;;;4588179;19;20018;-25
2022/06/04 06:09:40;;;;;;;10.10;9.20;;;17.90;99.90;;;;;;4592350;19;20039;-25
2022/06/04 06:11:13;;;;;;;9.13;8.23;;;17.90;99.90;;;;;;4592521;19;20507;-26
2022/06/04 06:12:44;;;;;;;9.25;8.27;;;17.90;99.90;;;;;;4592099;19;20034;-26
2022/06/04 06:14:16;;;;;;;9.20;8.25;;;18.00;99.90;;;;;;4592193;19;20491;-29
2022/06/04 06:15:47;;;;;;;9.40;8.02;;;18.00;99.90;;;;;;4590897;19;20007;-27
2022/06/04 06:17:18;;;;;;;9.02;8.13;;;18.00;99.90;;;;;;4591167;19;20015;-28
2022/06/04 06:18:49;;;;;;;10.15;8.43;;;18.10;99.90;;;;;;4590745;19;20014;-27
2022/06/04 06:20:20;;;;;;;9.65;8.55;;;18.10;99.90;;;;;;4591031;19;20018;-25
2022/06/04 06:21:53;;;;;;;9.52;8.50;;;18.10;99.90;;;;;;4590643;19;20011;-25
2022/06/04 06:23:24;;;;;;;8.27;7.47;;;18.10;99.90;;;;;;4591234;19;20018;-28
2022/06/04 06:24:56;;;;;;;8.25;7.03;;;18.10;99.90;;;;;;4590935;19;20011;-25
2022/06/04 06:26:29;;;;;;;8.15;7.35;;;18.10;99.90;;;;;;4591096;19;20014;-31
2022/06/04 06:28:00;;;;;;;8.52;7.63;;;18.20;99.90;;;;;;4587925;19;20356;-27
2022/06/04 06:29:32;;;;;;;8.68;7.78;;;18.20;99.90;;;;;;4589995;19;20074;-25
2022/06/04 06:31:04;;;;;;;8.20;7.35;;;18.20;99.90;;;;;;4591928;19;20014;-28
2022/06/04 06:32:35;;;;;;;;;;;18.30;99.90;;;;;;4592894;19;20054;-28
2022/06/04 06:34:06;;;;;;;7.72;6.93;;;18.30;99.90;;;;;;4592249;19;20278;-29
2022/06/04 06:35:37;;;;;;;8.25;7.25;;;18.30;99.90;;;;;;4591740;19;20006;-26
2022/06/04 06:37:08;;;;;;;8.80;7.32;;;18.30;99.90;;;;;;4590335;19;20035;-28
2022/06/04 06:38:39;;;;;;;;;;;18.40;99.90;;;;;;4591544;19;20015;-26
2022/06/04 06:40:10;;;;;;;;;;;18.40;99.90;;;;;;4591451;19;19925;-26
2022/06/04 06:41:42;;;;;;;;;;;18.40;99.90;;;;;;4591113;19;20366;-29
2022/06/04 06:43:12;;;;;;;;;;;18.50;99.90;;;;;;4590979;19;19943;-25
2022/06/04 06:44:43;;;;;;;9.20;6.70;;;18.50;99.90;;;;;;4590508;19;19930;-28
2022/06/04 06:46:24;;;;;;;;;;;18.50;99.90;;;;;;4593235;19;19933;-26
2022/06/04 06:47:56;;;;;;;7.95;6.53;;;18.50;99.90;;;;;;4591283;19;19946;-26
2022/06/04 06:49:28;;;;;;;7.22;6.32;;;18.50;99.90;;;;;;4589888;19;20041;-29
2022/06/04 06:51:12;;;;;;;8.13;7.32;;;18.50;99.90;;;;;;4589078;19;20389;-23
2022/06/04 06:52:43;;;;;;;7.82;7.13;;;18.60;99.90;;;;;;4591529;19;20034;-29
2022/06/04 06:54:15;;;;;;;7.38;6.63;;;18.60;99.90;;;;;;4589825;19;20601;-27
2022/06/04 06:55:46;;;;;;;7.38;6.68;;;18.60;99.90;;;;;;4590906;19;20088;-27
2022/06/04 06:57:17;;;;;;;8.02;7.22;;;18.70;99.90;;;;;;4591344;19;20081;-25
2022/06/04 06:58:48;;;;;;;7.45;6.75;;;18.70;99.90;;;;;;4590778;19;20013;-27
2022/06/04 07:00:20;;;;;;;7.32;6.63;;;18.70;99.90;;;;;;4589804;19;20018;-28
2022/06/04 07:01:51;;;;;;;6.80;6.07;;;18.70;99.90;;;;;;4590160;19;20070;-25
2022/06/04 07:03:22;;;;;;;7.85;6.38;;;18.70;99.90;;;;;;4587984;19;20014;-25
2022/06/04 07:04:53;;;;;;;6.60;6.00;;;18.70;99.90;;;;;;4591199;19;20010;-28
2022/06/04 07:06:39;;;;;;;7.18;5.97;;;18.80;99.90;;;;;;4591054;19;20010;-26
2022/06/04 07:08:10;;;;;;;6.68;5.97;;;18.80;99.90;;;;;;4590113;19;20706;-25
2022/06/04 07:09:41;;;;;;;6.57;5.97;;;18.80;99.90;;;;;;4591015;19;20018;-28
2022/06/04 07:11:12;;;;;;;6.30;5.70;;;18.80;99.90;;;;;;4590882;19;20021;-31
2022/06/04 07:12:44;;;;;;;8.23;5.85;;;18.80;99.90;;;;;;4591321;19;20091;-25
2022/06/04 07:14:15;;;;;;;6.82;5.78;;;18.80;99.90;;;;;;4589014;19;20482;-24
2022/06/04 07:15:46;;;;;;;6.47;5.75;;;18.80;99.90;;;;;;4588853;19;20452;-26
2022/06/04 07:17:17;;;;;;;5.95;5.32;;;18.90;99.90;;;;;;4589355;19;20014;-27
2022/06/04 07:18:49;;;;;;;6.47;5.68;;;18.90;99.90;;;;;;4589484;19;20040;-25
2022/06/04 07:20:20;;;;;;;6.07;5.47;;;18.90;99.90;;;;;;4588476;19;20010;-31
2022/06/04 07:21:52;;;;;;;6.25;5.60;;;18.90;99.90;;;;;;4590589;19;20019;-27
2022/06/04 07:23:23;;;;;;;6.50;5.90;;;18.90;99.90;;;;;;4591622;19;20084;-27
2022/06/04 07:24:55;;;;;;;5.75;5.05;;;19.00;99.90;;;;;;4591375;19;20496;-27
2022/06/04 07:26:26;;;;;;;;;;;19.00;99.90;;;;;;4591926;19;20453;-25
2022/06/04 07:27:57;;;;;;;7.07;5.47;;;19.00;99.90;;;;;;4589599;19;19936;-28
2022/06/04 07:29:28;;;;;;;6.50;5.78;;;19.10;99.90;;;;;;4590020;19;20055;-25
2022/06/04 07:30:59;;;;;;;;;;;19.20;99.90;;;;;;4590775;19;20689;-26
2022/06/04 07:32:30;;;;;;;;;;;19.30;99.90;;;;;;4590387;19;19967;-26
2022/06/04 07:34:01;;;;;;;;;;;19.30;99.90;;;;;;4589955;19;19931;-27
2022/06/04 07:35:32;;;;;;;;;;;19.20;99.90;;;;;;4592762;19;19918;-25
2022/06/04 07:37:05;;;;;;;;;;;19.20;99.90;;;;;;4592184;19;20081;-27
2022/06/04 07:38:36;;;;;;;7.50;6.60;;;19.20;99.90;;;;;;4591371;19;20368;-28
2022/06/04 07:40:07;;;;;;;;;;;18.90;99.90;;;;;;4593850;19;19978;-26
2022/06/04 07:41:42;;;;;;;16.10;8.93;;;18.50;99.90;;;;;;4591576;19;19922;-27
2022/06/04 07:43:14;;;;;;;16.52;9.85;;;18.20;99.90;;;;;;4590411;19;20528;-26
2022/06/04 07:44:45;;;;;;;15.45;8.60;;;17.90;99.90;;;;;;4590596;19;20035;-26
2022/06/04 07:46:16;;;;;;;8.57;7.00;;;17.70;99.90;;;;;;4591296;19;20011;-28
2022/06/04 07:47:47;;;;;;;6.38;5.60;;;17.60;99.90;;;;;;4590361;19;20445;-24
2022/06/04 07:49:19;;;;;;;15.00;9.40;;;17.50;99.90;;;;;;4590287;19;20497;-25
2022/06/04 07:50:50;;;;;;;5.90;4.38;;;17.60;99.90;;;;;;4592188;19;20033;-27
2022/06/04 07:52:22;;;;;;;6.70;4.85;;;18.00;99.90;;;;;;4588022;19;20046;-26
2022/06/04 07:53:53;;;;;;;6.40;4.90;;;18.30;99.90;;;;;;4589588;19;20023;-25
2022/06/04 07:55:24;;;;;;;;;;;18.60;99.90;;;;;;4590519;19;20015;-26
2022/06/04 07:56:55;;;;;;;;;;;18.80;99.90;;;;;;4591215;19;20234;-26
2022/06/04 07:58:26;;;;;;;;;;;19.10;99.90;;;;;;4591309;19;19943;-25
2022/06/04 07:59:57;;;;;;;;;;;19.20;99.90;;;;;;4592749;19;20345;-26
2022/06/04 08:01:29;;;;;;;4.72;4.22;;;19.30;99.90;;;;;;4591435;19;20064;-26
2022/06/04 08:02:59;;;;;;;;;;;18.80;99.90;;;;;;4590676;19;20015;-31
2022/06/04 08:04:30;;;;;;;5.55;4.82;;;18.10;99.90;;;;;;4590155;19;20306;-27
2022/06/04 08:06:02;;;;;;;6.85;5.53;;;17.70;99.90;;;;;;4589072;19;20011;-28
2022/06/04 08:07:33;;;;;;;;;;;17.40;99.90;;;;;;4589655;19;20018;-26
2022/06/04 08:09:04;;;;;;;;;;;17.20;99.90;;;;;;4591076;19;19918;-27
2022/06/04 08:10:35;;;;;;;;;;;17.10;99.90;;;;;;4590081;19;19934;-27
2022/06/04 08:12:06;;;;;;;;;;;17.00;99.90;;;;;;4590162;19;19931;-28
2022/06/04 08:13:37;;;;;;;;;;;16.90;99.90;;;;;;4588493;19;19922;-27